Adamsville, Rhode Island
Current Conditions -  °F | °C
As of 9:53 AM on Thursday 30 Oct 2014 (Local Time) from KUUU Reporting Station
Clear Clear  
Wind Chill: 55°   Ceiling: Unl
Heat Index: 55°   Visibility: 10mi
Dew Point: 41°   Wind: 8mph
Humidity: 59%   Direction: 320°NW
Pressure: 29.95"   Gusts: NA
Location:  41.55°N, 71.13°W
Report Text: KUUU 301353Z AUTO 32007KT 10SM CLR 13/05 A2995 RMK AO2 SLP141 T01280050
Loading
Personal Weather Stations






























Interactive Weather Map New forecast layout! Learn more

10-Day Weather Forecast

Advertisements
Track Severe Weather on mobile